sensor_id;sensor_type;location;lat;lon;timestamp;P1;durP1;ratioP1;P2;durP2;ratioP2
2538;SDS011;1280;49.760;9.664;2023-02-28T00:01:31;25.65;;;8.30;;
2538;SDS011;1280;49.760;9.664;2023-02-28T00:04:01;14.30;;;8.30;;
2538;SDS011;1280;49.760;9.664;2023-02-28T00:06:29;13.60;;;7.95;;
2538;SDS011;1280;49.760;9.664;2023-02-28T00:08:57;15.55;;;7.85;;
2538;SDS011;1280;49.760;9.664;2023-02-28T00:11:25;10.52;;;6.82;;
2538;SDS011;1280;49.760;9.664;2023-02-28T00:13:53;12.15;;;7.22;;
2538;SDS011;1280;49.760;9.664;2023-02-28T00:16:22;11.38;;;7.93;;
2538;SDS011;1280;49.760;9.664;2023-02-28T00:18:50;11.80;;;6.72;;
2538;SDS011;1280;49.760;9.664;2023-02-28T00:21:20;16.70;;;7.65;;
2538;SDS011;1280;49.760;9.664;2023-02-28T00:23:48;12.27;;;7.28;;
2538;SDS011;1280;49.760;9.664;2023-02-28T00:26:16;11.13;;;7.47;;
2538;SDS011;1280;49.760;9.664;2023-02-28T00:28:48;13.45;;;7.28;;
2538;SDS011;1280;49.760;9.664;2023-02-28T00:31:16;17.85;;;7.75;;
2538;SDS011;1280;49.760;9.664;2023-02-28T00:33:44;14.52;;;7.95;;
2538;SDS011;1280;49.760;9.664;2023-02-28T00:36:13;13.50;;;6.97;;
2538;SDS011;1280;49.760;9.664;2023-02-28T00:38:43;11.07;;;7.75;;
2538;SDS011;1280;49.760;9.664;2023-02-28T00:41:11;12.27;;;7.20;;
2538;SDS011;1280;49.760;9.664;2023-02-28T00:43:39;13.80;;;6.95;;
2538;SDS011;1280;49.760;9.664;2023-02-28T00:46:09;10.60;;;7.57;;
2538;SDS011;1280;49.760;9.664;2023-02-28T00:48:37;11.00;;;7.28;;
2538;SDS011;1280;49.760;9.664;2023-02-28T00:51:05;11.95;;;7.80;;
2538;SDS011;1280;49.760;9.664;2023-02-28T00:53:33;11.68;;;7.43;;
2538;SDS011;1280;49.760;9.664;2023-02-28T00:56:03;12.85;;;7.70;;
2538;SDS011;1280;49.760;9.664;2023-02-28T00:58:31;10.32;;;7.10;;
2538;SDS011;1280;49.760;9.664;2023-02-28T01:00:59;9.40;;;6.57;;
2538;SDS011;1280;49.760;9.664;2023-02-28T01:03:27;12.88;;;6.60;;
2538;SDS011;1280;49.760;9.664;2023-02-28T01:05:55;12.95;;;7.43;;
2538;SDS011;1280;49.760;9.664;2023-02-28T01:08:23;10.35;;;6.95;;
2538;SDS011;1280;49.760;9.664;2023-02-28T01:10:53;10.05;;;6.78;;
2538;SDS011;1280;49.760;9.664;2023-02-28T01:13:22;11.60;;;6.97;;
2538;SDS011;1280;49.760;9.664;2023-02-28T01:15:51;9.57;;;6.55;;
2538;SDS011;1280;49.760;9.664;2023-02-28T01:18:22;12.20;;;6.53;;
2538;SDS011;1280;49.760;9.664;2023-02-28T01:20:50;11.50;;;7.25;;
2538;SDS011;1280;49.760;9.664;2023-02-28T01:23:20;11.57;;;7.57;;
2538;SDS011;1280;49.760;9.664;2023-02-28T01:25:49;9.23;;;6.55;;
2538;SDS011;1280;49.760;9.664;2023-02-28T01:28:18;10.70;;;6.55;;
2538;SDS011;1280;49.760;9.664;2023-02-28T01:30:48;10.20;;;6.45;;
2538;SDS011;1280;49.760;9.664;2023-02-28T01:33:18;15.35;;;8.05;;
2538;SDS011;1280;49.760;9.664;2023-02-28T01:35:46;11.88;;;7.15;;
2538;SDS011;1280;49.760;9.664;2023-02-28T01:38:14;15.05;;;8.65;;
2538;SDS011;1280;49.760;9.664;2023-02-28T01:40:48;12.80;;;7.20;;
2538;SDS011;1280;49.760;9.664;2023-02-28T01:43:19;9.45;;;6.72;;
2538;SDS011;1280;49.760;9.664;2023-02-28T01:45:50;8.95;;;6.60;;
2538;SDS011;1280;49.760;9.664;2023-02-28T01:48:20;11.05;;;7.75;;
2538;SDS011;1280;49.760;9.664;2023-02-28T01:50:52;10.32;;;6.57;;
2538;SDS011;1280;49.760;9.664;2023-02-28T01:53:24;11.75;;;7.63;;
2538;SDS011;1280;49.760;9.664;2023-02-28T01:55:58;10.55;;;6.78;;
2538;SDS011;1280;49.760;9.664;2023-02-28T01:58:26;8.93;;;6.80;;
2538;SDS011;1280;49.760;9.664;2023-02-28T02:00:58;9.52;;;6.53;;
2538;SDS011;1280;49.760;9.664;2023-02-28T02:03:26;8.35;;;5.93;;
2538;SDS011;1280;49.760;9.664;2023-02-28T02:05:54;10.30;;;7.20;;
2538;SDS011;1280;49.760;9.664;2023-02-28T02:08:22;11.20;;;6.97;;
2538;SDS011;1280;49.760;9.664;2023-02-28T02:10:53;9.55;;;7.15;;
2538;SDS011;1280;49.760;9.664;2023-02-28T02:13:30;8.77;;;6.28;;
2538;SDS011;1280;49.760;9.664;2023-02-28T02:16:10;12.40;;;7.53;;
2538;SDS011;1280;49.760;9.664;2023-02-28T02:18:54;10.75;;;7.38;;
2538;SDS011;1280;49.760;9.664;2023-02-28T02:24:53;11.45;;;7.05;;
2538;SDS011;1280;49.760;9.664;2023-02-28T02:27:42;13.65;;;7.50;;
2538;SDS011;1280;49.760;9.664;2023-02-28T02:30:32;10.73;;;6.75;;
2538;SDS011;1280;49.760;9.664;2023-02-28T02:33:30;10.95;;;6.97;;
2538;SDS011;1280;49.760;9.664;2023-02-28T02:36:21;8.80;;;6.40;;
2538;SDS011;1280;49.760;9.664;2023-02-28T02:38:53;9.68;;;6.65;;
2538;SDS011;1280;49.760;9.664;2023-02-28T02:41:32;9.55;;;6.55;;
2538;SDS011;1280;49.760;9.664;2023-02-28T02:44:09;12.88;;;7.47;;
2538;SDS011;1280;49.760;9.664;2023-02-28T02:46:44;10.45;;;7.35;;
2538;SDS011;1280;49.760;9.664;2023-02-28T02:49:15;13.35;;;7.78;;
2538;SDS011;1280;49.760;9.664;2023-02-28T02:51:48;10.95;;;7.55;;
2538;SDS011;1280;49.760;9.664;2023-02-28T02:54:19;14.77;;;7.60;;
2538;SDS011;1280;49.760;9.664;2023-02-28T02:56:55;13.27;;;7.15;;
2538;SDS011;1280;49.760;9.664;2023-02-28T02:59:28;12.38;;;7.75;;
2538;SDS011;1280;49.760;9.664;2023-02-28T03:01:59;12.55;;;7.88;;
2538;SDS011;1280;49.760;9.664;2023-02-28T03:04:31;15.32;;;8.20;;
2538;SDS011;1280;49.760;9.664;2023-02-28T03:07:05;9.82;;;6.55;;
2538;SDS011;1280;49.760;9.664;2023-02-28T03:09:34;12.73;;;8.45;;
2538;SDS011;1280;49.760;9.664;2023-02-28T03:12:06;11.82;;;7.45;;
2538;SDS011;1280;49.760;9.664;2023-02-28T03:14:45;14.15;;;8.50;;
2538;SDS011;1280;49.760;9.664;2023-02-28T03:17:38;12.30;;;8.00;;
2538;SDS011;1280;49.760;9.664;2023-02-28T03:20:19;12.15;;;7.60;;
2538;SDS011;1280;49.760;9.664;2023-02-28T03:23:01;10.27;;;7.00;;
2538;SDS011;1280;49.760;9.664;2023-02-28T03:25:42;15.27;;;8.25;;
2538;SDS011;1280;49.760;9.664;2023-02-28T03:28:21;11.80;;;8.05;;
2538;SDS011;1280;49.760;9.664;2023-02-28T03:30:59;14.32;;;8.35;;
2538;SDS011;1280;49.760;9.664;2023-02-28T03:33:32;10.38;;;7.07;;
2538;SDS011;1280;49.760;9.664;2023-02-28T03:36:04;14.98;;;8.30;;
2538;SDS011;1280;49.760;9.664;2023-02-28T03:38:37;11.35;;;7.85;;
2538;SDS011;1280;49.760;9.664;2023-02-28T03:41:11;16.65;;;9.07;;
2538;SDS011;1280;49.760;9.664;2023-02-28T03:43:44;12.18;;;7.40;;
2538;SDS011;1280;49.760;9.664;2023-02-28T03:46:20;14.43;;;8.45;;
2538;SDS011;1280;49.760;9.664;2023-02-28T03:48:53;13.32;;;8.40;;
2538;SDS011;1280;49.760;9.664;2023-02-28T03:51:24;13.60;;;8.40;;
2538;SDS011;1280;49.760;9.664;2023-02-28T03:53:56;12.10;;;7.03;;
2538;SDS011;1280;49.760;9.664;2023-02-28T03:56:29;12.07;;;8.07;;
2538;SDS011;1280;49.760;9.664;2023-02-28T03:59:02;9.55;;;7.18;;
2538;SDS011;1280;49.760;9.664;2023-02-28T04:01:35;10.27;;;7.20;;
2538;SDS011;1280;49.760;9.664;2023-02-28T04:04:07;10.45;;;7.68;;
2538;SDS011;1280;49.760;9.664;2023-02-28T04:06:35;13.98;;;8.40;;
2538;SDS011;1280;49.760;9.664;2023-02-28T04:09:05;13.13;;;7.53;;
2538;SDS011;1280;49.760;9.664;2023-02-28T04:11:35;14.35;;;8.95;;
2538;SDS011;1280;49.760;9.664;2023-02-28T04:14:05;14.52;;;7.90;;
2538;SDS011;1280;49.760;9.664;2023-02-28T04:16:38;11.00;;;7.32;;
2538;SDS011;1280;49.760;9.664;2023-02-28T04:19:07;11.95;;;8.48;;
2538;SDS011;1280;49.760;9.664;2023-02-28T04:21:37;12.50;;;7.63;;
2538;SDS011;1280;49.760;9.664;2023-02-28T04:24:08;12.15;;;7.50;;
2538;SDS011;1280;49.760;9.664;2023-02-28T04:26:41;11.80;;;7.22;;
2538;SDS011;1280;49.760;9.664;2023-02-28T04:29:11;10.70;;;6.88;;
2538;SDS011;1280;49.760;9.664;2023-02-28T04:31:41;13.57;;;8.75;;
2538;SDS011;1280;49.760;9.664;2023-02-28T04:34:09;10.57;;;6.60;;
2538;SDS011;1280;49.760;9.664;2023-02-28T04:36:36;13.25;;;8.38;;
2538;SDS011;1280;49.760;9.664;2023-02-28T04:39:04;11.55;;;6.85;;
2538;SDS011;1280;49.760;9.664;2023-02-28T04:41:34;13.25;;;7.22;;
2538;SDS011;1280;49.760;9.664;2023-02-28T04:44:02;13.38;;;7.85;;
2538;SDS011;1280;49.760;9.664;2023-02-28T04:46:30;13.80;;;8.68;;
2538;SDS011;1280;49.760;9.664;2023-02-28T04:49:00;12.60;;;7.68;;
2538;SDS011;1280;49.760;9.664;2023-02-28T04:51:29;10.35;;;7.32;;
2538;SDS011;1280;49.760;9.664;2023-02-28T04:53:57;11.80;;;7.53;;
2538;SDS011;1280;49.760;9.664;2023-02-28T04:56:25;12.55;;;8.00;;
2538;SDS011;1280;49.760;9.664;2023-02-28T04:58:54;15.27;;;7.78;;
2538;SDS011;1280;49.760;9.664;2023-02-28T05:01:23;12.52;;;8.70;;
2538;SDS011;1280;49.760;9.664;2023-02-28T05:03:54;13.98;;;8.32;;
2538;SDS011;1280;49.760;9.664;2023-02-28T05:06:24;11.40;;;7.90;;
2538;SDS011;1280;49.760;9.664;2023-02-28T05:08:54;14.88;;;8.15;;
2538;SDS011;1280;49.760;9.664;2023-02-28T05:11:25;14.23;;;9.13;;
2538;SDS011;1280;49.760;9.664;2023-02-28T05:13:57;14.32;;;7.95;;
2538;SDS011;1280;49.760;9.664;2023-02-28T05:16:25;14.40;;;9.07;;
2538;SDS011;1280;49.760;9.664;2023-02-28T05:18:53;13.07;;;8.27;;
2538;SDS011;1280;49.760;9.664;2023-02-28T05:21:23;12.55;;;8.30;;
2538;SDS011;1280;49.760;9.664;2023-02-28T05:23:54;12.85;;;8.15;;
2538;SDS011;1280;49.760;9.664;2023-02-28T05:26:23;12.68;;;7.70;;
2538;SDS011;1280;49.760;9.664;2023-02-28T05:28:51;13.45;;;8.25;;
2538;SDS011;1280;49.760;9.664;2023-02-28T05:31:21;13.18;;;8.90;;
2538;SDS011;1280;49.760;9.664;2023-02-28T05:33:49;9.98;;;7.05;;
2538;SDS011;1280;49.760;9.664;2023-02-28T05:36:17;10.70;;;7.15;;
2538;SDS011;1280;49.760;9.664;2023-02-28T05:38:46;14.82;;;7.82;;
2538;SDS011;1280;49.760;9.664;2023-02-28T05:41:15;13.68;;;7.55;;
2538;SDS011;1280;49.760;9.664;2023-02-28T05:43:45;11.60;;;8.13;;
2538;SDS011;1280;49.760;9.664;2023-02-28T05:46:13;12.93;;;8.55;;
2538;SDS011;1280;49.760;9.664;2023-02-28T05:48:45;12.70;;;7.85;;
2538;SDS011;1280;49.760;9.664;2023-02-28T05:51:15;10.88;;;6.60;;
2538;SDS011;1280;49.760;9.664;2023-02-28T05:53:43;13.63;;;7.95;;
2538;SDS011;1280;49.760;9.664;2023-02-28T05:56:13;14.35;;;8.65;;
2538;SDS011;1280;49.760;9.664;2023-02-28T05:58:41;14.18;;;8.98;;
2538;SDS011;1280;49.760;9.664;2023-02-28T06:01:22;11.48;;;7.85;;
2538;SDS011;1280;49.760;9.664;2023-02-28T06:03:59;13.38;;;8.65;;
2538;SDS011;1280;49.760;9.664;2023-02-28T06:06:29;11.60;;;7.03;;
2538;SDS011;1280;49.760;9.664;2023-02-28T06:08:57;12.15;;;8.70;;
2538;SDS011;1280;49.760;9.664;2023-02-28T06:11:31;10.60;;;7.55;;
2538;SDS011;1280;49.760;9.664;2023-02-28T06:14:00;12.77;;;8.13;;
2538;SDS011;1280;49.760;9.664;2023-02-28T06:16:34;13.95;;;9.43;;
2538;SDS011;1280;49.760;9.664;2023-02-28T06:19:04;12.25;;;8.20;;
2538;SDS011;1280;49.760;9.664;2023-02-28T06:21:32;12.10;;;7.43;;
2538;SDS011;1280;49.760;9.664;2023-02-28T06:24:01;14.68;;;8.50;;
2538;SDS011;1280;49.760;9.664;2023-02-28T06:26:32;16.27;;;9.48;;
2538;SDS011;1280;49.760;9.664;2023-02-28T06:29:02;12.00;;;7.65;;
2538;SDS011;1280;49.760;9.664;2023-02-28T06:31:30;14.45;;;8.13;;
2538;SDS011;1280;49.760;9.664;2023-02-28T06:34:01;11.18;;;6.30;;
2538;SDS011;1280;49.760;9.664;2023-02-28T06:36:30;13.88;;;6.65;;
2538;SDS011;1280;49.760;9.664;2023-02-28T06:38:58;14.55;;;8.13;;
2538;SDS011;1280;49.760;9.664;2023-02-28T06:41:26;18.38;;;8.93;;
2538;SDS011;1280;49.760;9.664;2023-02-28T06:43:58;16.98;;;9.45;;
2538;SDS011;1280;49.760;9.664;2023-02-28T06:46:25;18.67;;;10.48;;
2538;SDS011;1280;49.760;9.664;2023-02-28T06:48:53;22.85;;;9.32;;
2538;SDS011;1280;49.760;9.664;2023-02-28T06:51:21;17.25;;;10.02;;
2538;SDS011;1280;49.760;9.664;2023-02-28T06:53:51;20.08;;;11.23;;
2538;SDS011;1280;49.760;9.664;2023-02-28T06:56:19;18.77;;;10.32;;
2538;SDS011;1280;49.760;9.664;2023-02-28T06:58:48;13.02;;;9.30;;
2538;SDS011;1280;49.760;9.664;2023-02-28T07:01:23;16.60;;;9.45;;
2538;SDS011;1280;49.760;9.664;2023-02-28T07:03:51;22.30;;;12.48;;
2538;SDS011;1280;49.760;9.664;2023-02-28T07:06:19;20.00;;;11.38;;
2538;SDS011;1280;49.760;9.664;2023-02-28T07:08:49;31.42;;;12.20;;
2538;SDS011;1280;49.760;9.664;2023-02-28T07:11:20;23.75;;;13.40;;
2538;SDS011;1280;49.760;9.664;2023-02-28T07:13:49;32.00;;;16.52;;
2538;SDS011;1280;49.760;9.664;2023-02-28T07:16:17;22.10;;;12.10;;
2538;SDS011;1280;49.760;9.664;2023-02-28T07:18:46;13.00;;;8.00;;
2538;SDS011;1280;49.760;9.664;2023-02-28T07:21:14;14.52;;;8.85;;
2538;SDS011;1280;49.760;9.664;2023-02-28T07:23:42;11.43;;;7.90;;
2538;SDS011;1280;49.760;9.664;2023-02-28T07:26:11;13.90;;;8.05;;
2538;SDS011;1280;49.760;9.664;2023-02-28T07:28:42;18.45;;;8.40;;
2538;SDS011;1280;49.760;9.664;2023-02-28T07:31:11;15.90;;;8.88;;
2538;SDS011;1280;49.760;9.664;2023-02-28T07:33:40;17.15;;;7.93;;
2538;SDS011;1280;49.760;9.664;2023-02-28T07:36:09;18.65;;;9.55;;
2538;SDS011;1280;49.760;9.664;2023-02-28T07:38:41;15.68;;;8.70;;
2538;SDS011;1280;49.760;9.664;2023-02-28T07:41:13;14.98;;;8.95;;
2538;SDS011;1280;49.760;9.664;2023-02-28T07:43:44;12.57;;;8.32;;
2538;SDS011;1280;49.760;9.664;2023-02-28T07:46:13;11.48;;;8.02;;
2538;SDS011;1280;49.760;9.664;2023-02-28T07:48:42;12.00;;;8.07;;
2538;SDS011;1280;49.760;9.664;2023-02-28T07:51:11;13.63;;;8.80;;
2538;SDS011;1280;49.760;9.664;2023-02-28T07:53:39;13.52;;;8.45;;
2538;SDS011;1280;49.760;9.664;2023-02-28T07:56:07;17.90;;;8.60;;
2538;SDS011;1280;49.760;9.664;2023-02-28T07:58:36;18.77;;;10.00;;
2538;SDS011;1280;49.760;9.664;2023-02-28T08:03:46;17.67;;;9.30;;
2538;SDS011;1280;49.760;9.664;2023-02-28T08:06:16;14.95;;;9.20;;
2538;SDS011;1280;49.760;9.664;2023-02-28T08:08:45;14.35;;;8.10;;
2538;SDS011;1280;49.760;9.664;2023-02-28T08:11:19;13.30;;;8.57;;
2538;SDS011;1280;49.760;9.664;2023-02-28T08:13:47;16.17;;;9.00;;
2538;SDS011;1280;49.760;9.664;2023-02-28T08:16:15;17.58;;;11.02;;
2538;SDS011;1280;49.760;9.664;2023-02-28T08:18:50;15.63;;;9.57;;
2538;SDS011;1280;49.760;9.664;2023-02-28T08:21:22;16.38;;;9.80;;
2538;SDS011;1280;49.760;9.664;2023-02-28T08:23:50;14.30;;;9.20;;
2538;SDS011;1280;49.760;9.664;2023-02-28T08:26:19;19.63;;;10.25;;
2538;SDS011;1280;49.760;9.664;2023-02-28T08:28:47;18.08;;;9.38;;
2538;SDS011;1280;49.760;9.664;2023-02-28T08:31:16;13.25;;;9.10;;
2538;SDS011;1280;49.760;9.664;2023-02-28T08:33:47;17.70;;;9.45;;
2538;SDS011;1280;49.760;9.664;2023-02-28T08:36:22;15.23;;;9.05;;
2538;SDS011;1280;49.760;9.664;2023-02-28T08:38:58;16.40;;;9.32;;
2538;SDS011;1280;49.760;9.664;2023-02-28T08:41:27;14.55;;;9.45;;
2538;SDS011;1280;49.760;9.664;2023-02-28T08:43:56;14.85;;;8.45;;
2538;SDS011;1280;49.760;9.664;2023-02-28T08:46:24;14.73;;;9.85;;
2538;SDS011;1280;49.760;9.664;2023-02-28T08:48:52;18.00;;;9.50;;
2538;SDS011;1280;49.760;9.664;2023-02-28T08:51:22;16.13;;;9.35;;
2538;SDS011;1280;49.760;9.664;2023-02-28T08:53:54;27.33;;;10.43;;
2538;SDS011;1280;49.760;9.664;2023-02-28T08:56:22;23.00;;;12.38;;
2538;SDS011;1280;49.760;9.664;2023-02-28T08:58:50;16.70;;;10.35;;
2538;SDS011;1280;49.760;9.664;2023-02-28T09:01:22;16.05;;;9.60;;
2538;SDS011;1280;49.760;9.664;2023-02-28T09:03:54;16.83;;;9.65;;
2538;SDS011;1280;49.760;9.664;2023-02-28T09:06:25;14.10;;;8.98;;
2538;SDS011;1280;49.760;9.664;2023-02-28T09:08:57;23.42;;;12.80;;
2538;SDS011;1280;49.760;9.664;2023-02-28T09:11:27;17.48;;;11.70;;
2538;SDS011;1280;49.760;9.664;2023-02-28T09:13:56;19.70;;;9.75;;
2538;SDS011;1280;49.760;9.664;2023-02-28T09:16:25;18.80;;;10.50;;
2538;SDS011;1280;49.760;9.664;2023-02-28T09:18:54;16.48;;;10.20;;
2538;SDS011;1280;49.760;9.664;2023-02-28T09:21:22;14.32;;;9.45;;
2538;SDS011;1280;49.760;9.664;2023-02-28T09:23:52;16.73;;;10.38;;
2538;SDS011;1280;49.760;9.664;2023-02-28T09:26:21;18.02;;;11.15;;
2538;SDS011;1280;49.760;9.664;2023-02-28T09:28:51;19.20;;;10.68;;
2538;SDS011;1280;49.760;9.664;2023-02-28T09:31:20;20.10;;;9.90;;
2538;SDS011;1280;49.760;9.664;2023-02-28T09:33:50;13.93;;;9.60;;
2538;SDS011;1280;49.760;9.664;2023-02-28T09:36:19;16.25;;;9.80;;
2538;SDS011;1280;49.760;9.664;2023-02-28T09:39:00;27.88;;;13.85;;
2538;SDS011;1280;49.760;9.664;2023-02-28T09:41:30;20.23;;;12.98;;
2538;SDS011;1280;49.760;9.664;2023-02-28T09:44:06;20.05;;;12.20;;
2538;SDS011;1280;49.760;9.664;2023-02-28T09:46:41;20.95;;;13.07;;
2538;SDS011;1280;49.760;9.664;2023-02-28T09:49:12;18.45;;;11.20;;
2538;SDS011;1280;49.760;9.664;2023-02-28T09:51:45;22.98;;;11.80;;
2538;SDS011;1280;49.760;9.664;2023-02-28T09:54:19;26.17;;;14.50;;
2538;SDS011;1280;49.760;9.664;2023-02-28T09:56:50;20.00;;;12.25;;
2538;SDS011;1280;49.760;9.664;2023-02-28T09:59:25;20.88;;;10.85;;
2538;SDS011;1280;49.760;9.664;2023-02-28T10:02:03;18.25;;;11.73;;
2538;SDS011;1280;49.760;9.664;2023-02-28T10:04:42;25.83;;;11.10;;
2538;SDS011;1280;49.760;9.664;2023-02-28T10:07:20;13.60;;;9.80;;
2538;SDS011;1280;49.760;9.664;2023-02-28T10:10:01;21.90;;;11.68;;
2538;SDS011;1280;49.760;9.664;2023-02-28T10:12:35;15.90;;;10.57;;
2538;SDS011;1280;49.760;9.664;2023-02-28T10:15:09;19.60;;;12.93;;
2538;SDS011;1280;49.760;9.664;2023-02-28T10:17:43;19.45;;;11.93;;
2538;SDS011;1280;49.760;9.664;2023-02-28T10:20:33;20.92;;;13.13;;
2538;SDS011;1280;49.760;9.664;2023-02-28T10:23:08;25.90;;;14.80;;
2538;SDS011;1280;49.760;9.664;2023-02-28T10:25:41;19.35;;;12.15;;
2538;SDS011;1280;49.760;9.664;2023-02-28T10:28:15;21.75;;;12.27;;
2538;SDS011;1280;49.760;9.664;2023-02-28T10:30:45;14.43;;;9.35;;
2538;SDS011;1280;49.760;9.664;2023-02-28T10:33:17;18.88;;;10.45;;
2538;SDS011;1280;49.760;9.664;2023-02-28T10:35:55;22.10;;;12.50;;
2538;SDS011;1280;49.760;9.664;2023-02-28T10:38:25;22.38;;;11.88;;
2538;SDS011;1280;49.760;9.664;2023-02-28T10:41:05;19.83;;;12.25;;
2538;SDS011;1280;49.760;9.664;2023-02-28T10:43:34;18.10;;;10.68;;
2538;SDS011;1280;49.760;9.664;2023-02-28T10:46:03;16.23;;;10.27;;
2538;SDS011;1280;49.760;9.664;2023-02-28T10:48:44;14.80;;;10.15;;
2538;SDS011;1280;49.760;9.664;2023-02-28T10:51:16;15.38;;;10.30;;
2538;SDS011;1280;49.760;9.664;2023-02-28T10:53:47;18.65;;;11.60;;
2538;SDS011;1280;49.760;9.664;2023-02-28T10:56:28;16.08;;;10.40;;
2538;SDS011;1280;49.760;9.664;2023-02-28T10:58:58;18.23;;;10.40;;
2538;SDS011;1280;49.760;9.664;2023-02-28T11:01:35;15.85;;;10.25;;
2538;SDS011;1280;49.760;9.664;2023-02-28T11:04:16;15.40;;;9.70;;
2538;SDS011;1280;49.760;9.664;2023-02-28T11:06:45;19.27;;;11.07;;
2538;SDS011;1280;49.760;9.664;2023-02-28T11:09:17;15.85;;;10.73;;
2538;SDS011;1280;49.760;9.664;2023-02-28T11:11:51;19.08;;;12.55;;
2538;SDS011;1280;49.760;9.664;2023-02-28T11:14:20;19.38;;;12.57;;
2538;SDS011;1280;49.760;9.664;2023-02-28T11:16:51;15.93;;;10.70;;
2538;SDS011;1280;49.760;9.664;2023-02-28T11:19:22;18.30;;;13.00;;
2538;SDS011;1280;49.760;9.664;2023-02-28T11:21:53;17.48;;;10.95;;
2538;SDS011;1280;49.760;9.664;2023-02-28T11:24:24;18.75;;;11.35;;
2538;SDS011;1280;49.760;9.664;2023-02-28T11:26:57;21.33;;;14.43;;
2538;SDS011;1280;49.760;9.664;2023-02-28T11:29:26;18.58;;;12.25;;
2538;SDS011;1280;49.760;9.664;2023-02-28T11:32:02;18.42;;;10.35;;
2538;SDS011;1280;49.760;9.664;2023-02-28T11:34:44;17.35;;;10.40;;
2538;SDS011;1280;49.760;9.664;2023-02-28T11:37:13;13.98;;;10.25;;
2538;SDS011;1280;49.760;9.664;2023-02-28T11:39:43;17.25;;;10.73;;
2538;SDS011;1280;49.760;9.664;2023-02-28T11:42:30;17.83;;;10.93;;
2538;SDS011;1280;49.760;9.664;2023-02-28T11:45:12;20.23;;;11.70;;
2538;SDS011;1280;49.760;9.664;2023-02-28T11:47:48;20.58;;;12.52;;
2538;SDS011;1280;49.760;9.664;2023-02-28T11:50:27;17.40;;;11.95;;
2538;SDS011;1280;49.760;9.664;2023-02-28T11:53:17;16.50;;;10.23;;
2538;SDS011;1280;49.760;9.664;2023-02-28T11:55:58;18.15;;;11.95;;
2538;SDS011;1280;49.760;9.664;2023-02-28T11:58:36;16.75;;;10.73;;
2538;SDS011;1280;49.760;9.664;2023-02-28T12:01:26;16.38;;;10.10;;
2538;SDS011;1280;49.760;9.664;2023-02-28T12:04:04;17.20;;;10.77;;
2538;SDS011;1280;49.760;9.664;2023-02-28T12:06:53;15.27;;;10.80;;
2538;SDS011;1280;49.760;9.664;2023-02-28T12:09:31;17.50;;;11.90;;
2538;SDS011;1280;49.760;9.664;2023-02-28T12:12:18;20.10;;;11.90;;
2538;SDS011;1280;49.760;9.664;2023-02-28T12:17:55;21.20;;;11.50;;
2538;SDS011;1280;49.760;9.664;2023-02-28T12:20:34;17.00;;;10.68;;
2538;SDS011;1280;49.760;9.664;2023-02-28T12:23:19;25.60;;;14.63;;
2538;SDS011;1280;49.760;9.664;2023-02-28T12:26:06;33.72;;;16.55;;
2538;SDS011;1280;49.760;9.664;2023-02-28T12:28:41;21.38;;;14.55;;
2538;SDS011;1280;49.760;9.664;2023-02-28T12:31:16;19.55;;;11.68;;
2538;SDS011;1280;49.760;9.664;2023-02-28T12:33:50;30.27;;;14.90;;
2538;SDS011;1280;49.760;9.664;2023-02-28T12:36:20;22.90;;;12.85;;
2538;SDS011;1280;49.760;9.664;2023-02-28T12:38:51;22.27;;;11.80;;
2538;SDS011;1280;49.760;9.664;2023-02-28T12:41:31;23.90;;;13.82;;
2538;SDS011;1280;49.760;9.664;2023-02-28T12:44:06;17.60;;;10.90;;
2538;SDS011;1280;49.760;9.664;2023-02-28T12:46:41;19.83;;;12.43;;
2538;SDS011;1280;49.760;9.664;2023-02-28T12:49:12;17.20;;;11.35;;
2538;SDS011;1280;49.760;9.664;2023-02-28T12:51:43;19.63;;;11.57;;
2538;SDS011;1280;49.760;9.664;2023-02-28T12:54:16;16.10;;;10.80;;
2538;SDS011;1280;49.760;9.664;2023-02-28T12:56:53;25.63;;;13.10;;
2538;SDS011;1280;49.760;9.664;2023-02-28T12:59:27;14.90;;;10.40;;
2538;SDS011;1280;49.760;9.664;2023-02-28T13:14:02;18.77;;;9.82;;
2538;SDS011;1280;49.760;9.664;2023-02-28T13:16:51;16.25;;;10.77;;
2538;SDS011;1280;49.760;9.664;2023-02-28T13:19:28;17.60;;;10.40;;
2538;SDS011;1280;49.760;9.664;2023-02-28T13:21:58;21.77;;;11.07;;
2538;SDS011;1280;49.760;9.664;2023-02-28T13:24:39;21.27;;;11.95;;
2538;SDS011;1280;49.760;9.664;2023-02-28T13:27:11;16.65;;;10.77;;
2538;SDS011;1280;49.760;9.664;2023-02-28T13:29:52;18.88;;;9.85;;
2538;SDS011;1280;49.760;9.664;2023-02-28T13:38:21;14.00;;;10.25;;
2538;SDS011;1280;49.760;9.664;2023-02-28T13:44:01;15.35;;;10.45;;
2538;SDS011;1280;49.760;9.664;2023-02-28T13:46:32;15.25;;;9.80;;
2538;SDS011;1280;49.760;9.664;2023-02-28T13:51:48;18.83;;;11.73;;
2538;SDS011;1280;49.760;9.664;2023-02-28T13:57:12;20.17;;;10.55;;
2538;SDS011;1280;49.760;9.664;2023-02-28T14:00:01;18.20;;;11.55;;
2538;SDS011;1280;49.760;9.664;2023-02-28T14:02:48;22.90;;;12.40;;
2538;SDS011;1280;49.760;9.664;2023-02-28T14:05:29;20.17;;;13.35;;
2538;SDS011;1280;49.760;9.664;2023-02-28T14:08:03;17.20;;;10.70;;
2538;SDS011;1280;49.760;9.664;2023-02-28T14:10:35;18.80;;;12.77;;
2538;SDS011;1280;49.760;9.664;2023-02-28T14:13:14;18.60;;;13.15;;
2538;SDS011;1280;49.760;9.664;2023-02-28T14:16:11;16.73;;;11.00;;
2538;SDS011;1280;49.760;9.664;2023-02-28T14:18:42;19.88;;;12.40;;
2538;SDS011;1280;49.760;9.664;2023-02-28T14:21:20;16.02;;;11.60;;
2538;SDS011;1280;49.760;9.664;2023-02-28T14:24:07;19.35;;;11.73;;
2538;SDS011;1280;49.760;9.664;2023-02-28T14:26:59;17.00;;;11.00;;
2538;SDS011;1280;49.760;9.664;2023-02-28T14:29:44;19.05;;;12.07;;
2538;SDS011;1280;49.760;9.664;2023-02-28T14:32:37;17.58;;;12.20;;
2538;SDS011;1280;49.760;9.664;2023-02-28T14:35:15;18.75;;;11.50;;
2538;SDS011;1280;49.760;9.664;2023-02-28T14:37:49;19.85;;;12.70;;
2538;SDS011;1280;49.760;9.664;2023-02-28T14:40:19;22.92;;;13.73;;
2538;SDS011;1280;49.760;9.664;2023-02-28T14:42:54;18.13;;;12.00;;
2538;SDS011;1280;49.760;9.664;2023-02-28T14:45:23;20.75;;;12.15;;
2538;SDS011;1280;49.760;9.664;2023-02-28T14:47:53;18.80;;;10.95;;
2538;SDS011;1280;49.760;9.664;2023-02-28T14:50:24;16.92;;;10.50;;
2538;SDS011;1280;49.760;9.664;2023-02-28T14:52:55;16.30;;;11.10;;
2538;SDS011;1280;49.760;9.664;2023-02-28T14:55:25;17.45;;;11.55;;
2538;SDS011;1280;49.760;9.664;2023-02-28T14:57:56;21.23;;;13.80;;
2538;SDS011;1280;49.760;9.664;2023-02-28T15:00:26;20.33;;;13.88;;
2538;SDS011;1280;49.760;9.664;2023-02-28T15:02:56;23.35;;;13.30;;
2538;SDS011;1280;49.760;9.664;2023-02-28T15:05:27;22.35;;;14.45;;
2538;SDS011;1280;49.760;9.664;2023-02-28T15:08:01;23.10;;;14.82;;
2538;SDS011;1280;49.760;9.664;2023-02-28T15:10:34;18.65;;;10.80;;
2538;SDS011;1280;49.760;9.664;2023-02-28T15:13:04;28.77;;;16.70;;
2538;SDS011;1280;49.760;9.664;2023-02-28T15:15:45;24.40;;;15.02;;
2538;SDS011;1280;49.760;9.664;2023-02-28T15:18:36;18.48;;;11.82;;
2538;SDS011;1280;49.760;9.664;2023-02-28T15:21:11;18.42;;;11.68;;
2538;SDS011;1280;49.760;9.664;2023-02-28T15:23:45;21.15;;;12.15;;
2538;SDS011;1280;49.760;9.664;2023-02-28T15:26:19;17.92;;;10.88;;
2538;SDS011;1280;49.760;9.664;2023-02-28T15:28:50;15.77;;;10.55;;
2538;SDS011;1280;49.760;9.664;2023-02-28T15:31:23;17.88;;;11.98;;
2538;SDS011;1280;49.760;9.664;2023-02-28T15:34:06;20.48;;;11.57;;
2538;SDS011;1280;49.760;9.664;2023-02-28T15:36:41;17.13;;;12.20;;
2538;SDS011;1280;49.760;9.664;2023-02-28T15:39:18;28.55;;;17.40;;
2538;SDS011;1280;49.760;9.664;2023-02-28T15:41:48;18.85;;;12.40;;
2538;SDS011;1280;49.760;9.664;2023-02-28T15:44:17;19.23;;;12.90;;
2538;SDS011;1280;49.760;9.664;2023-02-28T15:46:54;17.52;;;11.30;;
2538;SDS011;1280;49.760;9.664;2023-02-28T15:49:26;15.18;;;10.30;;
2538;SDS011;1280;49.760;9.664;2023-02-28T15:51:57;17.08;;;10.60;;
2538;SDS011;1280;49.760;9.664;2023-02-28T15:54:27;21.02;;;13.23;;
2538;SDS011;1280;49.760;9.664;2023-02-28T15:57:00;19.25;;;11.15;;
2538;SDS011;1280;49.760;9.664;2023-02-28T15:59:35;17.55;;;11.25;;
2538;SDS011;1280;49.760;9.664;2023-02-28T16:02:11;18.25;;;12.52;;
2538;SDS011;1280;49.760;9.664;2023-02-28T16:04:56;15.35;;;10.02;;